Time;durP1;ratioP1;P1;durP2;ratioP2;P2;SDS_P1;SDS_P2;PMS_P1;PMS_P2;Temp;Humidity;BMP_temperature;BMP_pressure;BME280_temperature;BME280_humidity;BME280_pressure;Samples;Min_cycle;Max_cycle;Signal;HPM_P1;HPM_P2
2022/11/25 10:13:01;;;;;;;12.73;8.17;;;;;;;6.22;100.00;100115.25;1779154;80;22472;-73
2022/11/25 10:15:33;;;;;;;9.53;6.73;;;;;;;6.26;100.00;100125.61;1773281;80;20979;-63
2022/11/25 10:18:05;;;;;;;9.27;6.30;;;;;;;6.37;100.00;100121.42;1754715;81;21659;-63
2022/11/25 10:20:36;;;;;;;11.70;7.47;;;;;;;6.42;100.00;100121.75;1743565;81;21673;-73
2022/11/25 10:23:13;;;;;;;10.50;6.90;;;;;;;6.41;100.00;100121.44;1740457;81;21818;-66
2022/11/25 10:25:47;;;;;;;9.50;6.50;;;;;;;6.40;100.00;100128.85;1748886;81;21625;-63
2022/11/25 10:28:23;;;;;;;11.23;6.83;;;;;;;6.33;100.00;100134.36;1759840;81;21662;-72
2022/11/25 10:31:19;;;;;;;9.17;6.20;;;;;;;6.33;100.00;100134.36;1743219;81;21636;-64
2022/11/25 10:33:52;;;;;;;9.87;6.37;;;;;;;6.34;100.00;100122.55;1753418;81;21990;-73
2022/11/25 10:36:24;;;;;;;10.53;6.53;;;;;;;6.37;100.00;100129.20;1745438;81;21534;-62
2022/11/25 10:39:13;;;;;;;13.13;6.97;;;;;;;6.39;100.00;100123.36;1734499;81;22006;-64
2022/11/25 10:42:06;;;;;;;8.03;5.57;;;;;;;6.44;100.00;100112.05;1732863;82;21029;-73
2022/11/25 10:44:38;;;;;;;9.30;6.50;;;;;;;6.47;100.00;100120.78;1734502;82;22587;-62
2022/11/25 10:47:32;;;;;;;9.13;6.23;;;;;;;6.47;100.00;100120.78;1733554;82;21390;-72
2022/11/25 10:50:15;;;;;;;10.00;6.73;;;;;;;6.51;100.00;100122.08;1734874;82;21664;-62
2022/11/25 10:53:15;;;;;;;11.40;5.83;;;;;;;6.51;100.00;100122.08;1746251;81;22175;-62
2022/11/25 10:56:02;;;;;;;9.00;5.70;;;;;;;6.41;100.00;100121.44;1700666;81;21598;-62
2022/11/25 10:58:36;;;;;;;9.90;6.00;;;;;;;6.41;100.00;100127.91;1754941;81;21645;-64
2022/11/25 11:01:18;;;;;;;11.23;7.13;;;;;;;6.41;100.00;100127.91;1764708;81;21404;-63
2022/11/25 11:03:52;;;;;;;11.78;8.38;;;;;;;6.44;100.00;100118.53;1764921;81;22737;-62
2022/11/25 11:06:36;;;;;;;10.97;7.17;;;;;;;6.44;100.00;100121.12;1759988;81;20943;-74
2022/11/25 11:09:04;;;;;;;10.77;6.20;;;;;;;6.39;100.00;100131.61;1764337;81;21238;-73
2022/11/25 11:11:32;;;;;;;10.07;6.43;;;;;;;6.39;100.00;100131.61;1764704;81;21745;-62
2022/11/25 11:14:17;;;;;;;10.80;6.23;;;;;;;6.41;100.00;100105.09;1764242;81;21463;-63
2022/11/25 11:16:53;;;;;;;10.13;6.30;;;;;;;6.41;100.00;100105.09;1764331;81;22043;-64
2022/11/25 11:19:25;;;;;;;12.30;6.70;;;;;;;6.36;100.00;100106.84;1737033;81;21418;-62
2022/11/25 11:21:52;;;;;;;12.23;7.05;;;;;;;6.32;100.00;100123.66;1763406;81;21344;-73
2022/11/25 11:24:36;;;;;;;10.77;7.30;;;;;;;6.31;100.00;100115.58;1764267;81;20887;-63
2022/11/25 11:27:08;;;;;;;13.23;8.00;;;;;;;6.32;100.00;100118.48;1764349;81;21575;-63
2022/11/25 11:29:35;;;;;;;10.93;6.97;;;;;;;6.32;100.00;100115.89;1762705;81;21981;-73
2022/11/25 11:32:11;;;;;;;12.47;7.47;;;;;;;6.36;100.00;100127.55;1763854;81;21457;-63
2022/11/25 11:34:53;;;;;;;12.47;7.03;;;;;;;6.37;100.00;100129.69;1761891;81;21583;-63
2022/11/25 11:37:35;;;;;;;11.53;6.60;;;;;;;6.37;100.00;100129.69;1764134;81;21334;-66
2022/11/25 11:40:18;;;;;;;;;;;;;;;6.37;100.00;100129.69;1766708;81;22503;-63
2022/11/25 11:43:16;;;;;;;9.53;5.83;;;;;;;6.35;100.00;100137.59;1764454;81;20098;-61
2022/11/25 11:45:58;;;;;;;10.17;6.67;;;;;;;6.33;100.00;100133.07;1764122;81;21493;-64
2022/11/25 11:48:30;;;;;;;7.62;5.40;;;;;;;6.31;100.00;100132.41;1763242;81;21908;-73
2022/11/25 11:51:08;;;;;;;10.07;6.00;;;;;;;6.28;100.00;100143.06;1714154;81;21761;-64
2022/11/25 11:54:06;;;;;;;11.37;6.00;;;;;;;6.28;100.00;100143.06;1761124;81;21352;-63
2022/11/25 11:56:41;;;;;;;8.67;5.40;;;;;;;6.25;100.00;100142.92;1759397;81;21497;-70
2022/11/25 11:59:45;;;;;;;9.97;6.33;;;;;;;6.27;100.00;100141.45;1759629;80;21360;-64
2022/11/25 12:02:27;;;;;;;16.87;11.47;;;;;;;6.26;100.00;100141.14;1739836;81;21798;-64
2022/11/25 12:05:14;;;;;;;16.10;10.10;;;;;;;6.27;100.00;100145.34;1755714;81;21813;-64
2022/11/25 12:08:01;;;;;;;19.90;10.83;;;;;;;6.22;100.00;100143.72;1733784;82;20943;-62
2022/11/25 12:10:33;;;;;;;9.40;5.93;;;;;;;6.14;100.00;100139.78;1733757;82;21243;-68
2022/11/25 12:13:09;;;;;;;12.00;6.80;;;;;;;6.05;100.00;100138.47;1722944;82;21421;-65
2022/11/25 12:16:07;;;;;;;8.37;5.63;;;;;;;6.04;100.00;100139.93;1719850;82;21394;-64
2022/11/25 12:18:58;;;;;;;10.13;5.60;;;;;;;5.99;100.00;100145.58;1719700;83;21176;-73
2022/11/25 12:21:57;;;;;;;9.87;5.87;;;;;;;5.99;100.00;100145.58;1719659;83;21296;-69
2022/11/25 12:24:37;;;;;;;9.97;5.80;;;;;;;5.98;100.00;100146.52;1733987;81;22570;-67
2022/11/25 12:27:15;;;;;;;12.33;6.83;;;;;;;5.94;100.00;100151.69;1747577;80;21370;-68
2022/11/25 12:30:05;;;;;;;10.80;6.00;;;;;;;5.94;100.00;100142.63;1750278;81;21315;-78
2022/11/25 12:32:47;;;;;;;7.90;5.20;;;;;;;5.88;100.00;100156.17;1764916;80;21303;-67
2022/11/25 12:35:51;;;;;;;10.97;5.80;;;;;;;5.85;100.00;100150.81;1721725;81;21426;-79
2022/11/25 12:38:27;;;;;;;8.40;6.23;;;;;;;5.86;100.00;100147.73;1754766;81;21856;-66
2022/11/25 12:41:35;;;;;;;8.10;5.43;;;;;;;5.83;100.00;100143.70;1752835;81;21250;-65
2022/11/25 12:44:10;;;;;;;10.37;5.67;;;;;;;5.79;100.00;100153.20;1766176;80;21222;-72
2022/11/25 12:46:46;;;;;;;6.87;4.40;;;;;;;5.74;100.00;100148.50;1742006;80;21427;-66
2022/11/25 12:49:27;;;;;;;8.80;4.97;;;;;;;5.71;100.00;100148.80;1733559;82;21122;-70
2022/11/25 12:52:33;;;;;;;9.50;6.50;;;;;;;5.70;100.00;100142.50;1762447;80;21108;-71
2022/11/25 12:55:18;;;;;;;9.00;5.80;;;;;;;5.67;100.00;100141.02;1742722;82;21077;-65
2022/11/25 12:58:25;;;;;;;9.63;5.63;;;;;;;5.66;100.00;100151.53;1742386;82;21276;-66
2022/11/25 13:01:09;;;;;;;12.27;5.30;;;;;;;5.63;100.00;100143.59;1743187;82;22543;-65
2022/11/25 13:04:06;;;;;;;9.50;5.83;;;;;;;5.60;100.00;100147.28;1743616;82;21833;-76
2022/11/25 13:07:13;;;;;;;9.87;5.93;;;;;;;5.59;100.00;100148.25;1707205;82;21296;-65
2022/11/25 13:29:19;;;;;;;11.27;7.67;;;;;;;4.45;100.00;100163.33;1855396;74;22009;-66
2022/11/25 13:31:59;;;;;;;9.57;6.30;;;;;;;4.45;100.00;100163.33;1835982;77;20985;-64
2022/11/25 13:34:35;;;;;;;10.43;6.33;;;;;;;4.49;100.00;100157.73;1815411;77;21912;-78
2022/11/25 13:37:29;;;;;;;13.73;6.87;;;;;;;4.52;100.00;100163.90;1845952;77;21792;-65
2022/11/25 13:40:25;;;;;;;13.20;7.47;;;;;;;4.57;100.00;100166.03;1810226;77;21766;-76
2022/11/25 13:42:54;;;;;;;15.03;8.13;;;;;;;4.60;100.00;100170.42;1840385;77;21224;-66
2022/11/25 13:45:37;;;;;;;10.80;7.10;;;;;;;4.62;100.00;100176.27;1854248;77;21133;-65
2022/11/25 13:48:20;;;;;;;10.03;6.50;;;;;;;4.64;100.00;100175.63;1852813;76;21415;-68
2022/11/25 13:50:48;;;;;;;10.93;6.73;;;;;;;4.68;100.00;100174.05;1846712;77;21237;-65
2022/11/25 13:53:31;;;;;;;9.90;6.60;;;;;;;4.68;100.00;100166.30;1845240;77;21265;-75
2022/11/25 13:56:15;;;;;;;8.77;6.70;;;;;;;4.70;100.00;100160.50;1856606;77;21900;-67
2022/11/25 13:59:16;;;;;;;8.43;6.00;;;;;;;4.71;100.00;100169.89;1843046;77;21643;-68
2022/11/25 14:01:48;;;;;;;9.97;6.77;;;;;;;4.71;100.00;100162.95;1777413;79;21232;-77
2022/11/25 14:04:15;;;;;;;10.87;6.90;;;;;;;4.74;100.00;100167.02;1733938;78;21544;-76
2022/11/25 14:06:56;;;;;;;10.80;6.63;;;;;;;4.76;100.00;100167.67;1822422;78;21090;-68
2022/11/25 14:09:46;;;;;;;13.03;7.27;;;;;;;4.76;100.00;100164.59;1839636;77;21272;-70
2022/11/25 14:12:18;;;;;;;11.80;7.23;;;;;;;4.77;100.00;100163.66;1855165;77;21106;-66
2022/11/25 14:15:03;;;;;;;11.23;6.87;;;;;;;4.78;100.00;100165.77;1855735;77;21329;-64
2022/11/25 14:17:58;;;;;;;12.37;7.60;;;;;;;4.76;100.00;100166.37;1856298;77;21228;-64
2022/11/25 14:20:40;;;;;;;13.60;8.47;;;;;;;4.72;100.00;100172.80;1855480;76;21203;-67
2022/11/25 14:23:14;;;;;;;;;;;;;;;4.72;100.00;100167.63;1795628;77;21739;-77
2022/11/25 14:25:50;;;;;;;11.37;7.10;;;;;;;4.70;100.00;100174.25;1856202;77;20952;-64
2022/11/25 14:28:33;;;;;;;12.70;7.87;;;;;;;4.67;100.00;100175.83;1850204;77;21310;-65
2022/11/25 14:31:08;;;;;;;13.33;7.43;;;;;;;4.66;100.00;100181.12;1845573;77;21114;-66
2022/11/25 14:33:51;;;;;;;11.03;7.10;;;;;;;4.62;100.00;100177.56;1815764;77;21261;-64
2022/11/25 14:36:39;;;;;;;13.60;8.00;;;;;;;4.61;100.00;100187.53;1811916;79;21284;-66
2022/11/25 14:39:36;;;;;;;18.63;13.37;;;;;;;4.58;100.00;100185.27;1812078;78;21944;-66
2022/11/25 14:42:15;;;;;;;11.70;7.03;;;;;;;4.55;100.00;100183.45;1810915;78;21664;-78
2022/11/25 14:44:51;;;;;;;15.20;7.80;;;;;;;4.56;100.00;100181.20;1811635;78;21093;-77
2022/11/25 14:47:23;;;;;;;13.13;7.97;;;;;;;4.53;100.00;100182.77;1811181;79;21381;-66
2022/11/25 14:49:54;;;;;;;11.97;7.70;;;;;;;4.51;100.00;100171.31;1810893;79;20917;-67
2022/11/25 14:52:34;;;;;;;14.38;9.35;;;;;;;4.51;100.00;100168.73;1829820;76;21202;-67
2022/11/25 14:55:04;;;;;;;13.03;8.43;;;;;;;4.50;100.00;100168.86;1844881;76;21747;-68
2022/11/25 14:57:37;;;;;;;15.90;9.17;;;;;;;4.47;100.00;100182.89;1844081;77;22386;-76
2022/11/25 15:00:11;;;;;;;11.75;8.30;;;;;;;4.45;100.00;100177.53;1838669;76;21601;-69
2022/11/25 15:02:41;;;;;;;12.73;8.80;;;;;;;4.42;100.00;100182.98;1835426;76;20917;-78
2022/11/25 15:05:17;;;;;;;11.43;8.03;;;;;;;4.42;100.00;100182.49;1818556;77;21289;-79
2022/11/25 15:08:14;;;;;;;12.30;8.77;;;;;;;4.39;100.00;100196.97;1844050;77;21466;-68
2022/11/25 15:10:59;;;;;;;10.87;7.50;;;;;;;4.38;100.00;100192.77;1827286;77;21260;-66
2022/11/25 15:13:42;;;;;;;14.93;9.30;;;;;;;4.38;100.00;100190.19;1817486;77;21205;-66
2022/11/25 15:16:18;;;;;;;13.93;8.97;;;;;;;4.38;100.00;100196.16;1844544;77;21341;-77
2022/11/25 15:18:55;;;;;;;13.30;8.93;;;;;;;4.42;100.00;100185.55;1844469;77;21917;-67
2022/11/25 15:21:39;;;;;;;13.27;8.80;;;;;;;4.40;100.00;100193.45;1844525;77;21841;-77
2022/11/25 15:24:22;;;;;;;13.37;8.37;;;;;;;4.38;100.00;100181.97;1841575;77;21195;-69
2022/11/25 15:26:52;;;;;;;13.00;8.97;;;;;;;4.42;100.00;100173.46;1790924;77;20997;-65
2022/11/25 15:29:21;;;;;;;11.97;8.63;;;;;;;4.42;100.00;100194.59;1811293;78;21235;-65
2022/11/25 15:31:49;;;;;;;10.60;7.47;;;;;;;4.39;100.00;100180.20;1811419;77;21088;-76
2022/11/25 15:34:17;;;;;;;11.87;8.03;;;;;;;4.38;100.00;100184.55;1811508;78;21262;-65
2022/11/25 15:36:45;;;;;;;12.27;8.40;;;;;;;4.41;100.00;100168.45;1831758;77;21125;-65
2022/11/25 15:39:20;;;;;;;12.77;8.23;;;;;;;4.42;100.00;100159.27;1818344;77;21150;-65
2022/11/25 15:42:09;;;;;;;14.97;9.03;;;;;;;4.42;100.00;100139.91;1843780;77;21096;-70
2022/11/25 15:44:48;;;;;;;11.17;7.73;;;;;;;4.44;100.00;100136.72;1844432;76;21753;-75
2022/11/25 15:47:27;;;;;;;12.23;7.77;;;;;;;4.42;100.00;100168.78;1841577;77;21310;-78
2022/11/25 15:50:08;;;;;;;12.23;8.47;;;;;;;4.42;100.00;100159.27;1848284;77;21176;-65
2022/11/25 15:52:38;;;;;;;11.30;8.07;;;;;;;4.40;100.00;100171.52;1844609;77;21187;-66
2022/11/25 15:55:09;;;;;;;12.03;8.73;;;;;;;4.36;100.00;100186.96;1844787;77;21220;-66
2022/11/25 15:57:37;;;;;;;14.20;8.63;;;;;;;4.37;100.00;100175.19;1848718;76;21237;-66
2022/11/25 16:00:14;;;;;;;11.83;8.63;;;;;;;4.36;100.00;100198.58;1854619;77;21421;-76
2022/11/25 16:02:47;;;;;;;15.50;9.37;;;;;;;4.36;100.00;100184.38;1856758;76;21180;-65
2022/11/25 16:05:20;;;;;;;12.70;8.13;;;;;;;4.37;100.00;100189.39;1844382;77;21169;-66
2022/11/25 16:07:56;;;;;;;11.70;8.20;;;;;;;4.35;100.00;100193.05;1843950;77;21098;-66
2022/11/25 16:10:30;;;;;;;11.40;8.60;;;;;;;4.36;100.00;100199.86;1844405;77;21285;-66
2022/11/25 16:13:22;;;;;;;10.90;8.20;;;;;;;4.36;100.00;100199.38;1844859;77;21671;-65
2022/11/25 16:16:13;;;;;;;11.57;8.00;;;;;;;4.32;100.00;100192.89;1844809;77;21964;-66
2022/11/25 16:19:11;;;;;;;10.08;7.12;;;;;;;4.31;100.00;100189.14;1844840;77;26900;-65
2022/11/25 16:21:43;;;;;;;9.90;7.20;;;;;;;4.30;100.00;100196.56;1843876;76;21005;-66
2022/11/25 16:24:33;;;;;;;11.37;7.30;;;;;;;4.30;100.00;100192.20;1844943;77;21281;-66
2022/11/25 16:27:08;;;;;;;12.43;7.90;;;;;;;4.29;100.00;100184.62;1817274;77;21276;-73
2022/11/25 16:29:51;;;;;;;10.83;6.60;;;;;;;4.32;100.00;100205.79;1817884;78;21398;-66
2022/11/25 16:32:23;;;;;;;12.33;6.97;;;;;;;4.36;100.00;100207.13;1821261;78;21106;-65
2022/11/25 16:34:51;;;;;;;10.90;7.20;;;;;;;4.45;100.00;100189.14;1782415;80;21720;-67
2022/11/25 16:37:19;;;;;;;11.17;7.73;;;;;;;4.36;100.00;100211.48;1755076;81;21255;-65
2022/11/25 16:39:46;;;;;;;10.87;6.97;;;;;;;4.33;100.00;100217.73;1782438;80;21332;-67
2022/11/25 16:42:18;;;;;;;9.87;7.13;;;;;;;4.35;100.00;100220.16;1766614;79;21244;-66
2022/11/25 16:44:49;;;;;;;10.75;7.47;;;;;;;4.33;100.00;100222.08;1786281;80;21270;-66
2022/11/25 16:47:17;;;;;;;9.97;6.80;;;;;;;4.35;100.00;100214.98;1785322;80;21784;-65
2022/11/25 16:49:45;;;;;;;11.07;7.63;;;;;;;4.34;100.00;100215.95;1785281;79;21112;-65
2022/11/25 16:52:13;;;;;;;11.93;7.80;;;;;;;4.33;100.00;100228.05;1783808;79;21483;-65
2022/11/25 16:54:40;;;;;;;11.40;7.23;;;;;;;4.34;100.00;100219.83;1767853;80;21130;-63
2022/11/25 16:57:16;;;;;;;17.40;8.57;;;;;;;4.33;100.00;100237.56;1755267;81;21176;-62
2022/11/25 16:59:44;;;;;;;12.70;8.10;;;;;;;4.34;100.00;100228.86;1767165;80;21902;-62
2022/11/25 17:02:16;;;;;;;11.13;8.00;;;;;;;4.32;100.00;100209.66;1765869;79;21340;-72
2022/11/25 17:04:44;;;;;;;10.98;7.55;;;;;;;4.32;100.00;100211.44;1755567;81;21179;-63
2022/11/25 17:07:13;;;;;;;11.80;7.03;;;;;;;4.32;100.00;100212.72;1755339;80;20918;-63
2022/11/25 17:09:41;;;;;;;9.93;6.90;;;;;;;4.37;100.00;100218.25;1754413;81;21167;-72
2022/11/25 17:12:26;;;;;;;9.73;6.90;;;;;;;4.31;100.00;100229.95;1754919;81;21357;-73
2022/11/25 17:14:53;;;;;;;10.23;7.77;;;;;;;4.39;100.00;100214.58;1755341;81;21138;-63
2022/11/25 17:17:23;;;;;;;10.00;7.37;;;;;;;4.39;100.00;100215.03;1755421;81;21732;-63
2022/11/25 17:19:52;;;;;;;11.53;7.47;;;;;;;4.34;100.00;100221.12;1754930;79;21185;-65
2022/11/25 17:22:22;;;;;;;9.10;6.87;;;;;;;4.30;100.00;100220.59;1782525;80;21206;-63
2022/11/25 17:24:50;;;;;;;10.35;6.30;;;;;;;4.28;100.00;100220.39;1782926;80;21318;-62
2022/11/25 17:27:29;;;;;;;9.63;6.77;;;;;;;4.29;100.00;100223.33;1782884;80;20934;-62
2022/11/25 17:29:57;;;;;;;11.17;8.13;;;;;;;4.28;100.00;100222.97;1738209;81;22293;-64
2022/11/25 17:32:25;;;;;;;10.60;8.10;;;;;;;4.31;100.00;100217.05;1759850;81;22459;-60
2022/11/25 17:34:55;;;;;;;10.23;6.83;;;;;;;4.30;100.00;100224.46;1781844;78;21221;-60
2022/11/25 17:37:23;;;;;;;10.77;7.07;;;;;;;4.31;100.00;100231.72;1795347;78;21229;-61
2022/11/25 17:39:52;;;;;;;9.97;7.60;;;;;;;4.29;100.00;100217.69;1803238;78;21977;-62
2022/11/25 17:42:24;;;;;;;10.53;7.03;;;;;;;4.28;100.00;100223.80;1790741;78;22427;-62
2022/11/25 17:44:52;;;;;;;12.50;7.90;;;;;;;4.34;100.00;100232.73;1796262;78;21766;-61
2022/11/25 17:47:20;;;;;;;11.00;7.33;;;;;;;4.32;100.00;100219.98;1805769;78;21213;-63
2022/11/25 17:49:49;;;;;;;9.53;6.93;;;;;;;4.39;100.00;100232.65;1804374;78;21784;-62
2022/11/25 17:52:17;;;;;;;10.50;7.83;;;;;;;4.37;100.00;100224.70;1807692;78;21248;-65
2022/11/25 17:54:45;;;;;;;12.07;7.47;;;;;;;4.34;100.00;100235.31;1804873;78;21249;-61
2022/11/25 17:57:18;;;;;;;9.83;7.40;;;;;;;4.36;100.00;100232.93;1799859;78;21177;-70
2022/11/25 17:59:45;;;;;;;10.35;7.05;;;;;;;4.39;100.00;100236.52;1805258;78;21249;-61
2022/11/25 18:02:17;;;;;;;11.00;7.63;;;;;;;4.40;100.00;100234.75;1800153;78;21061;-70
2022/11/25 18:04:44;;;;;;;11.17;7.77;;;;;;;4.46;100.00;100234.64;1805336;78;22639;-61
2022/11/25 18:07:12;;;;;;;10.57;8.10;;;;;;;4.48;100.00;100241.77;1806899;78;22493;-61
2022/11/25 18:09:40;;;;;;;12.30;7.70;;;;;;;4.49;100.00;100245.48;1803848;78;21398;-61
2022/11/25 18:12:15;;;;;;;11.93;7.83;;;;;;;4.47;100.00;100257.74;1800406;78;21854;-70
2022/11/25 18:14:45;;;;;;;9.93;7.33;;;;;;;4.47;100.00;100247.42;1806711;78;21239;-61
2022/11/25 18:17:15;;;;;;;10.53;7.90;;;;;;;4.43;100.00;100249.11;1804112;78;21683;-61
2022/11/25 18:19:42;;;;;;;9.93;7.20;;;;;;;4.44;100.00;100256.73;1805835;78;21220;-61
2022/11/25 18:22:17;;;;;;;11.27;7.90;;;;;;;4.45;100.00;100258.83;1806999;78;21100;-62
2022/11/25 18:24:44;;;;;;;10.97;8.10;;;;;;;4.43;100.00;100254.28;1807111;78;21294;-60
2022/11/25 18:27:25;;;;;;;11.20;8.70;;;;;;;4.39;100.00;100273.94;1804243;78;21210;-61
2022/11/25 18:29:53;;;;;;;11.00;7.90;;;;;;;4.39;100.00;100273.11;1809306;78;21223;-69
2022/11/25 18:32:22;;;;;;;14.07;9.87;;;;;;;4.39;100.00;100273.11;1813362;78;21204;-60
2022/11/25 18:34:50;;;;;;;12.80;9.23;;;;;;;4.35;100.00;100262.73;1812432;78;21190;-62
2022/11/25 18:37:19;;;;;;;11.20;7.17;;;;;;;4.34;100.00;100262.41;1804652;76;22636;-60
2022/11/25 18:39:46;;;;;;;13.10;8.97;;;;;;;4.36;100.00;100294.87;1814413;77;21158;-60
2022/11/25 18:42:25;;;;;;;13.37;9.13;;;;;;;4.36;100.00;100277.28;1808218;78;21794;-61
2022/11/25 18:44:55;;;;;;;11.63;8.10;;;;;;;4.34;100.00;100266.27;1795061;78;21218;-61
2022/11/25 18:47:22;;;;;;;13.30;9.60;;;;;;;4.35;100.00;100269.19;1814737;78;21187;-61
2022/11/25 18:49:49;;;;;;;11.47;8.37;;;;;;;4.33;100.00;100284.02;1808196;78;21743;-67
2022/11/25 18:52:17;;;;;;;12.37;8.50;;;;;;;4.32;100.00;100278.52;1815676;78;21222;-60
2022/11/25 18:54:45;;;;;;;13.30;8.73;;;;;;;4.34;100.00;100283.86;1813636;78;21125;-69
2022/11/25 18:57:13;;;;;;;11.03;8.13;;;;;;;4.36;100.00;100286.31;1816031;78;21301;-60
2022/11/25 18:59:41;;;;;;;14.67;9.70;;;;;;;4.49;100.00;100293.72;1814644;78;21205;-60
2022/11/25 19:02:17;;;;;;;11.83;8.43;;;;;;;4.48;100.00;100284.36;1812525;77;21166;-61
2022/11/25 19:04:47;;;;;;;12.67;9.17;;;;;;;4.51;100.00;100293.09;1812546;78;21185;-61
2022/11/25 19:07:14;;;;;;;12.20;8.77;;;;;;;4.51;100.00;100291.34;1808945;78;21297;-61
2022/11/25 19:09:43;;;;;;;13.93;8.43;;;;;;;4.48;100.00;100291.63;1813710;78;21380;-62
2022/11/25 19:12:13;;;;;;;12.65;9.03;;;;;;;4.48;100.00;100298.08;1815796;78;21213;-61
2022/11/25 19:14:43;;;;;;;11.77;9.20;;;;;;;4.50;100.00;100297.44;1814264;78;20879;-62
2022/11/25 19:17:18;;;;;;;12.63;9.57;;;;;;;4.54;100.00;100302.66;1809102;78;21126;-61
2022/11/25 19:19:46;;;;;;;12.00;9.50;;;;;;;4.53;100.00;100304.09;1811737;78;21578;-70
2022/11/25 19:22:16;;;;;;;12.70;9.57;;;;;;;4.59;100.00;100316.45;1808516;78;21323;-62
2022/11/25 19:24:44;;;;;;;14.00;8.77;;;;;;;4.62;100.00;100298.06;1813141;77;21815;-61
2022/11/25 19:27:22;;;;;;;12.87;8.67;;;;;;;4.61;100.00;100298.55;1809519;78;21312;-61
2022/11/25 19:29:49;;;;;;;12.93;9.07;;;;;;;4.69;100.00;100307.34;1820635;77;21208;-62
2022/11/25 19:32:23;;;;;;;11.70;9.10;;;;;;;4.36;100.00;100315.52;1833586;77;21209;-67
2022/11/25 19:34:53;;;;;;;12.23;9.30;;;;;;;4.33;100.00;100308.53;1835456;77;22304;-59
2022/11/25 19:37:21;;;;;;;13.13;9.43;;;;;;;4.34;100.00;100347.08;1833682;77;21133;-59
2022/11/25 19:39:51;;;;;;;14.30;9.50;;;;;;;4.34;100.00;100338.53;1832722;77;21160;-59
2022/11/25 19:42:19;;;;;;;13.90;8.90;;;;;;;4.34;100.00;100325.63;1825163;77;21228;-67
2022/11/25 19:44:46;;;;;;;12.03;8.50;;;;;;;4.35;100.00;100314.34;1831152;77;21325;-60
2022/11/25 19:47:22;;;;;;;12.97;8.67;;;;;;;4.35;100.00;100307.41;1839419;77;21233;-60
2022/11/25 19:49:52;;;;;;;12.60;9.30;;;;;;;4.37;100.00;100317.61;1834321;77;21388;-60
2022/11/25 19:52:21;;;;;;;11.57;8.97;;;;;;;4.33;100.00;100339.50;1830527;77;21671;-67
2022/11/25 19:54:49;;;;;;;14.10;8.50;;;;;;;4.31;100.00;100318.97;1826587;77;21426;-61
2022/11/25 19:57:20;;;;;;;11.97;9.47;;;;;;;4.25;100.00;100315.69;1796980;79;21344;-69
2022/11/25 19:59:47;;;;;;;13.07;9.47;;;;;;;4.23;100.00;100305.97;1782890;80;21350;-60
2022/11/25 20:02:20;;;;;;;14.70;8.57;;;;;;;4.19;100.00;100296.07;1805460;79;21654;-61
2022/11/25 20:04:50;;;;;;;11.10;8.57;;;;;;;4.20;100.00;100300.27;1791073;78;22598;-63
2022/11/25 20:07:18;;;;;;;10.90;8.10;;;;;;;4.21;100.00;100300.63;1801780;78;21166;-69
2022/11/25 20:09:46;;;;;;;11.13;8.77;;;;;;;4.21;100.00;100309.18;1789431;79;21410;-61
2022/11/25 20:12:20;;;;;;;12.27;9.07;;;;;;;4.23;100.00;100313.70;1767458;79;21249;-61
2022/11/25 20:14:48;;;;;;;12.07;8.80;;;;;;;4.20;100.00;100296.41;1789625;77;21088;-61
2022/11/25 20:17:23;;;;;;;10.70;7.97;;;;;;;4.19;100.00;100299.94;1790851;77;21206;-71
2022/11/25 20:19:51;;;;;;;12.40;8.23;;;;;;;4.18;100.00;100297.03;1795523;77;21029;-62
2022/11/25 20:22:23;;;;;;;10.57;7.73;;;;;;;4.18;100.00;100303.48;1797145;77;21266;-65
2022/11/25 20:24:51;;;;;;;11.43;7.70;;;;;;;4.22;100.00;100293.22;1804033;77;22067;-69
2022/11/25 20:27:18;;;;;;;11.70;8.20;;;;;;;4.24;100.00;100313.23;1801967;77;20935;-60
2022/11/25 20:29:45;;;;;;;11.00;8.40;;;;;;;4.25;100.00;100293.75;1794989;77;21846;-61
2022/11/25 20:32:30;;;;;;;10.20;7.80;;;;;;;4.24;100.00;100302.91;1800565;77;21193;-61
2022/11/25 20:34:58;;;;;;;11.03;8.27;;;;;;;4.23;100.00;100315.48;1818286;77;21093;-67
2022/11/25 20:37:26;;;;;;;10.43;7.70;;;;;;;4.22;100.00;100299.19;1797576;77;21215;-61
2022/11/25 20:39:57;;;;;;;11.53;7.90;;;;;;;4.24;100.00;100298.55;1800284;77;21245;-61
2022/11/25 20:42:24;;;;;;;11.93;8.43;;;;;;;4.23;100.00;100303.39;1804153;77;21426;-61
2022/11/25 20:44:51;;;;;;;11.27;7.93;;;;;;;4.22;100.00;100299.67;1797317;77;21217;-61
2022/11/25 20:47:20;;;;;;;14.40;9.17;;;;;;;4.23;100.00;100300.00;1793696;77;21201;-61
2022/11/25 20:49:48;;;;;;;11.80;9.00;;;;;;;4.23;100.00;100297.41;1797265;77;21338;-60
2022/11/25 20:52:30;;;;;;;11.40;7.40;;;;;;;4.22;100.00;100300.95;1795186;77;21383;-60
2022/11/25 20:54:57;;;;;;;11.93;8.47;;;;;;;4.24;100.00;100290.00;1792973;77;21288;-60
2022/11/25 20:57:25;;;;;;;10.28;7.75;;;;;;;4.24;100.00;100296.45;1798612;77;21304;-70
2022/11/25 20:59:52;;;;;;;10.43;7.97;;;;;;;4.22;100.00;100301.77;1798621;77;21049;-68
2022/11/25 21:02:20;;;;;;;10.47;7.90;;;;;;;4.21;100.00;100312.24;1797943;77;21487;-61
2022/11/25 21:04:47;;;;;;;10.23;8.10;;;;;;;4.19;100.00;100311.55;1796668;77;21211;-62
2022/11/25 21:07:19;;;;;;;12.10;7.83;;;;;;;4.19;100.00;100318.00;1795952;77;21793;-64
2022/11/25 21:09:46;;;;;;;10.57;7.70;;;;;;;4.21;100.00;100323.38;1804316;77;21336;-61
2022/11/25 21:12:14;;;;;;;11.37;7.87;;;;;;;4.14;100.00;100316.66;1800471;77;21354;-61
2022/11/25 21:14:44;;;;;;;10.53;7.53;;;;;;;4.11;100.00;100316.93;1806360;77;21772;-61
2022/11/25 21:17:11;;;;;;;11.07;8.13;;;;;;;4.09;100.00;100316.27;1789681;77;21336;-69
2022/11/25 21:19:39;;;;;;;10.93;7.87;;;;;;;4.04;100.00;100318.44;1802252;77;21244;-70
2022/11/25 21:22:06;;;;;;;10.83;6.77;;;;;;;4.06;100.00;100324.28;1799074;77;21220;-67
2022/11/25 21:24:37;;;;;;;10.20;7.57;;;;;;;4.05;100.00;100320.09;1772089;79;21186;-61
2022/11/25 21:27:08;;;;;;;10.80;6.97;;;;;;;4.02;100.00;100322.94;1788087;77;21789;-62
2022/11/25 21:29:37;;;;;;;8.63;6.40;;;;;;;4.06;100.00;100324.77;1787068;77;21376;-69
2022/11/25 21:32:17;;;;;;;10.17;6.73;;;;;;;4.07;100.00;100336.70;1771059;78;21317;-60
2022/11/25 21:34:45;;;;;;;8.65;6.70;;;;;;;4.03;100.00;100334.88;1775488;79;21353;-68
2022/11/25 21:37:13;;;;;;;8.77;6.37;;;;;;;4.00;100.00;100335.63;1754604;79;21057;-60
2022/11/25 21:39:40;;;;;;;8.60;6.67;;;;;;;3.97;100.00;100343.16;1755347;79;21399;-59
2022/11/25 21:42:14;;;;;;;8.97;6.53;;;;;;;3.99;100.00;100346.42;1721518;81;21567;-60
2022/11/25 21:44:41;;;;;;;8.93;6.27;;;;;;;3.97;100.00;100354.76;1777864;79;21326;-60
2022/11/25 21:47:20;;;;;;;9.10;6.63;;;;;;;3.96;100.00;100375.55;1766185;81;21250;-61
2022/11/25 21:49:48;;;;;;;8.87;6.30;;;;;;;3.94;100.00;100365.38;1764501;81;21239;-61
2022/11/25 21:52:15;;;;;;;9.10;6.97;;;;;;;3.94;100.00;100371.83;1751213;81;21265;-59
2022/11/25 21:54:42;;;;;;;8.40;6.30;;;;;;;3.94;100.00;100365.38;1766200;81;21195;-69
2022/11/25 21:57:23;;;;;;;8.77;6.70;;;;;;;3.96;100.00;100367.80;1766638;81;21238;-67
2022/11/25 21:59:51;;;;;;;9.18;6.62;;;;;;;3.99;100.00;100370.12;1779049;80;22525;-59
2022/11/25 22:02:20;;;;;;;8.77;5.60;;;;;;;3.95;100.00;100373.44;1721023;81;21225;-59
2022/11/25 22:04:48;;;;;;;8.93;6.57;;;;;;;3.96;100.00;100371.67;1724809;82;21220;-59
2022/11/25 22:07:16;;;;;;;8.50;6.33;;;;;;;3.94;100.00;100367.11;1694379;84;21886;-60
2022/11/25 22:09:44;;;;;;;8.73;6.00;;;;;;;3.96;100.00;100369.91;1722315;83;21334;-59
2022/11/25 22:12:28;;;;;;;7.97;6.43;;;;;;;3.97;100.00;100375.39;1717651;80;21663;-63
2022/11/25 22:14:57;;;;;;;8.67;6.37;;;;;;;3.95;100.00;100369.58;1717568;82;21808;-60
2022/11/25 22:17:24;;;;;;;8.85;6.53;;;;;;;3.93;100.00;100375.33;1693524;84;21270;-58
2022/11/25 22:19:52;;;;;;;9.17;5.97;;;;;;;3.93;100.00;100408.86;1743875;81;21303;-59
2022/11/25 22:22:19;;;;;;;9.03;6.60;;;;;;;3.92;100.00;100383.22;1721874;82;21947;-59
2022/11/25 22:24:46;;;;;;;9.37;6.67;;;;;;;3.90;100.00;100388.49;1752079;80;21171;-61
2022/11/25 22:27:22;;;;;;;8.40;6.23;;;;;;;3.86;100.00;100386.69;1720293;81;21226;-70